createdAt,value
2023-04-15T00:03:52.780Z,16572.41
2023-04-15T00:08:56.238Z,16556.83
2023-04-15T00:14:03.098Z,16556.75
2023-04-15T00:19:06.449Z,16554.92
2023-04-15T00:24:09.834Z,16562.57
2023-04-15T00:29:15.313Z,16563.49
2023-04-15T00:34:18.796Z,16604.29
2023-04-15T00:39:24.406Z,16614.51
2023-04-15T00:44:31.346Z,16617.57
2023-04-15T00:49:39.367Z,16610.38
2023-04-15T00:54:42.699Z,16550.04
2023-04-15T00:59:53.964Z,16555.04
2023-04-15T01:04:57.651Z,16571.79
2023-04-15T01:10:02.369Z,16444.85
2023-04-15T01:15:08.127Z,16440.86
2023-04-15T01:20:12.284Z,16421.56
2023-04-15T01:25:21.717Z,16417.87
2023-04-15T01:30:29.988Z,16407.07
2023-04-15T01:35:35.726Z,16397.32
2023-04-15T01:40:39.524Z,16376.72
2023-04-15T01:45:47.010Z,16354.11
2023-04-15T01:50:50.365Z,16356.24
2023-04-15T01:55:53.733Z,16360.74
2023-04-15T02:00:58.457Z,16373.90
2023-04-15T02:06:06.247Z,16373.82
2023-04-15T02:11:09.591Z,16391.73
2023-04-15T02:16:21.414Z,16402.27
2023-04-15T02:21:24.799Z,16379.84
2023-04-15T02:26:28.130Z,16391.90
2023-04-15T02:31:37.015Z,16391.13
2023-04-15T02:36:42.966Z,16384.65
2023-04-15T02:41:47.859Z,16387.07
2023-04-15T02:46:54.872Z,16399.71
2023-04-15T02:52:00.028Z,16429.71
2023-04-15T02:57:04.090Z,16439.79
2023-04-15T03:02:46.279Z,16430.40
2023-04-15T03:08:12.501Z,16401.98
2023-04-15T03:13:15.879Z,16423.02
2023-04-15T03:18:22.164Z,16433.21
2023-04-15T03:23:30.053Z,16411.74
2023-04-15T03:28:34.175Z,16373.20
2023-04-15T03:33:38.917Z,16360.63
2023-04-15T03:38:46.434Z,16292.92
2023-04-15T03:43:52.078Z,16279.65
2023-04-15T03:48:55.430Z,16326.45
2023-04-15T03:54:00.130Z,16300.69
2023-04-15T03:59:03.610Z,16223.43
2023-04-15T04:04:09.228Z,16259.35
2023-04-15T04:09:16.551Z,16275.02
2023-04-15T04:14:19.841Z,16266.23
2023-04-15T04:19:25.507Z,16193.53
2023-04-15T04:24:30.272Z,16134.67
2023-04-15T04:29:36.162Z,16142.25
2023-04-15T04:34:41.925Z,16163.64
2023-04-15T04:39:46.692Z,16198.08
2023-04-15T04:44:50.053Z,16178.48
2023-04-15T04:49:55.585Z,16187.18
2023-04-15T04:55:05.899Z,16192.16
2023-04-15T05:00:14.165Z,16213.49
2023-04-15T05:05:17.487Z,16225.49
2023-04-15T05:10:24.569Z,16250.89
2023-04-15T05:15:28.222Z,16234.26
2023-04-15T05:20:31.606Z,16252.78
2023-04-15T05:25:36.567Z,16241.85
2023-04-15T05:30:40.272Z,16238.65
2023-04-15T05:35:46.913Z,16228.00
2023-04-15T05:40:51.863Z,16246.02
2023-04-15T05:45:57.425Z,16223.59
2023-04-15T05:51:00.840Z,16229.68
2023-04-15T05:56:08.037Z,16259.14
2023-04-15T06:01:11.794Z,16263.95
2023-04-15T06:06:16.254Z,16263.76
2023-04-15T06:11:21.448Z,16241.36
2023-04-15T06:16:24.792Z,16229.81
2023-04-15T06:21:28.216Z,16282.91
2023-04-15T06:26:35.277Z,16274.17
2023-04-15T06:31:38.579Z,16273.29
2023-04-15T06:36:42.366Z,16265.60
2023-04-15T06:41:47.391Z,16251.19
2023-04-15T06:46:55.359Z,16245.43
2023-04-15T06:52:01.659Z,16271.57
2023-04-15T06:57:07.172Z,16280.99
2023-04-15T07:02:13.519Z,16270.66
2023-04-15T07:07:19.308Z,16237.62
2023-04-15T07:12:24.319Z,16248.15
2023-04-15T07:17:27.910Z,16263.63
2023-04-15T07:22:31.180Z,16255.95
2023-04-15T07:27:36.049Z,16097.16
2023-04-15T07:32:39.333Z,16123.65
2023-04-15T07:37:43.416Z,16101.26
2023-04-15T07:42:49.461Z,16149.29
2023-04-15T07:47:52.939Z,16213.39
2023-04-15T07:52:56.369Z,16248.62
2023-04-15T07:58:03.305Z,16219.80
2023-04-15T08:03:06.891Z,16207.82
2023-04-15T08:08:14.889Z,16186.12
2023-04-15T08:13:19.550Z,16174.20
2023-04-15T08:18:22.795Z,16252.03
2023-04-15T08:23:26.343Z,16233.79
2023-04-15T08:28:33.603Z,16230.52
2023-04-15T08:33:37.067Z,16237.98
2023-04-15T08:38:40.583Z,16224.01
2023-04-15T08:43:52.962Z,16237.45
2023-04-15T08:48:57.997Z,16246.81
2023-04-15T08:54:01.916Z,16247.37
2023-04-15T08:59:07.385Z,16280.29
2023-04-15T09:04:12.658Z,16226.01
2023-04-15T09:09:18.373Z,16172.66
2023-04-15T09:14:23.048Z,16179.72
2023-04-15T09:19:29.125Z,16205.79
2023-04-15T09:24:38.615Z,16155.30
2023-04-15T09:29:43.768Z,16146.18
2023-04-15T09:34:48.144Z,16140.50
2023-04-15T09:39:52.250Z,16127.10
2023-04-15T09:45:10.583Z,16102.27
2023-04-15T09:50:14.724Z,16193.92
2023-04-15T09:55:19.235Z,16141.70
2023-04-15T10:00:23.906Z,16029.02
2023-04-15T10:05:29.722Z,16066.92
2023-04-15T10:10:36.349Z,16051.69
2023-04-15T10:15:46.105Z,16231.57
2023-04-15T10:20:50.061Z,16324.43
2023-04-15T10:25:54.413Z,16337.18
2023-04-15T10:31:03.051Z,16327.57
2023-04-15T10:36:08.977Z,16349.80
2023-04-15T10:41:21.236Z,16326.74
2023-04-15T10:46:37.631Z,16312.35
2023-04-15T10:51:44.865Z,16398.81
2023-04-15T10:56:52.892Z,16380.09
2023-04-15T11:02:02.068Z,16389.16
2023-04-15T11:07:09.224Z,16413.22
2023-04-15T11:12:14.963Z,16412.49
2023-04-15T11:17:30.044Z,16409.94
2023-04-15T11:22:34.240Z,16419.18
2023-04-15T11:27:37.923Z,16419.96
2023-04-15T11:32:44.433Z,16410.31
2023-04-15T11:37:48.516Z,16378.54
2023-04-15T11:43:05.453Z,16376.97
2023-04-15T11:48:11.334Z,16344.40
2023-04-15T11:53:15.327Z,16281.00
2023-04-15T11:58:22.017Z,16210.35
2023-04-15T12:03:27.845Z,16183.36
2023-04-15T12:08:46.157Z,16284.73
2023-04-15T12:13:50.207Z,16333.06
2023-04-15T12:18:57.890Z,16361.91
2023-04-15T12:24:04.183Z,16370.06
2023-04-15T12:29:10.970Z,16387.35
2023-04-15T12:34:15.790Z,16368.78
2023-04-15T12:39:19.489Z,16365.52
2023-04-15T12:44:24.538Z,6818.07
2023-04-15T12:49:29.342Z,9.51
2023-04-15T12:54:33.180Z,10.32
2023-04-15T12:59:36.681Z,10.72
2023-04-15T13:04:43.861Z,11.32
2023-04-15T13:09:47.644Z,82.39
2023-04-15T13:14:51.125Z,8508.29
2023-04-15T13:19:58.320Z,15259.53
2023-04-15T13:25:04.146Z,16993.66
2023-04-15T13:30:07.873Z,17159.47
2023-04-15T13:35:14.828Z,17246.04
2023-04-15T13:40:21.104Z,17213.25
2023-04-15T13:45:24.552Z,17026.08
2023-04-15T13:50:29.379Z,13021.27
2023-04-15T13:55:35.035Z,13900.09
2023-04-15T14:00:38.633Z,14196.23
2023-04-15T14:05:43.304Z,14571.64
2023-04-15T14:10:51.568Z,15057.51
2023-04-15T14:15:58.118Z,15457.14
2023-04-15T14:21:02.890Z,15557.61
2023-04-15T14:26:06.474Z,15596.11
2023-04-15T14:31:12.431Z,15904.94
2023-04-15T14:36:17.207Z,16352.80
2023-04-15T14:41:20.779Z,16298.45
2023-04-15T14:46:24.567Z,16538.08
2023-04-15T14:51:29.377Z,16330.12
2023-04-15T14:56:32.813Z,16034.92
2023-04-15T15:01:38.404Z,15886.05
2023-04-15T15:06:43.258Z,15640.38
2023-04-15T15:11:46.703Z,15727.17
2023-04-15T15:16:50.187Z,16054.27
2023-04-15T15:21:59.918Z,16304.29
2023-04-15T15:27:03.428Z,16220.33
2023-04-15T15:32:09.811Z,16448.92
2023-04-15T15:37:14.611Z,16505.34
2023-04-15T15:42:20.567Z,16111.72
2023-04-15T15:47:26.847Z,15780.38
2023-04-15T15:52:31.741Z,15994.50
2023-04-15T15:57:38.177Z,16013.21
2023-04-15T16:07:49.718Z,16271.85
2023-04-15T16:12:55.504Z,16397.12
2023-04-15T16:18:01.483Z,16468.15
2023-04-15T16:23:13.177Z,16401.07
2023-04-15T16:28:25.661Z,16391.42
2023-04-15T16:33:30.105Z,16404.47
2023-04-15T16:38:34.841Z,16476.81
2023-04-15T16:43:40.594Z,15942.68
2023-04-15T16:48:46.303Z,15239.73
2023-04-15T16:53:51.192Z,14576.56
2023-04-15T16:58:54.596Z,14514.92
2023-04-15T17:03:58.282Z,14503.12
2023-04-15T17:09:03.605Z,14640.77
2023-04-15T17:14:07.809Z,14868.16
2023-04-15T17:19:13.577Z,14991.06
2023-04-15T17:24:25.111Z,14866.51
2023-04-15T17:29:35.042Z,14894.01
2023-04-15T17:34:50.239Z,14974.76
2023-04-15T17:40:16.112Z,15063.94
2023-04-15T17:45:39.502Z,15099.21
2023-04-15T17:51:02.849Z,15121.75
2023-04-15T17:56:29.421Z,15077.22
2023-04-15T18:01:55.156Z,15057.12
2023-04-15T18:07:18.952Z,15058.21
2023-04-15T18:12:43.594Z,15019.00
2023-04-15T18:18:06.825Z,14967.35
2023-04-15T18:23:10.188Z,15019.54
2023-04-15T18:28:17.073Z,15015.13
2023-04-15T18:33:22.994Z,14991.09
2023-04-15T18:38:26.457Z,14918.76
2023-04-15T18:43:33.571Z,14992.81
2023-04-15T18:48:39.441Z,14980.27
2023-04-15T18:53:42.788Z,14913.60
2023-04-15T18:59:08.883Z,14969.44
2023-04-15T19:04:13.224Z,15051.36
2023-04-15T19:09:18.891Z,15067.41
2023-04-15T19:14:26.606Z,15150.46
2023-04-15T19:19:32.247Z,15151.80
2023-04-15T19:24:35.901Z,15149.98
2023-04-15T19:29:40.746Z,15184.46
2023-04-15T19:34:47.156Z,15213.93
2023-04-15T19:39:52.958Z,15212.78
2023-04-15T19:44:57.637Z,15232.42
2023-04-15T19:50:01.338Z,15232.68
2023-04-15T19:55:07.193Z,15167.68
2023-04-15T20:00:12.876Z,15207.22
2023-04-15T20:05:16.315Z,15219.85
2023-04-15T20:10:19.830Z,15252.67
2023-04-15T20:15:24.823Z,15265.83
2023-04-15T20:20:28.256Z,15243.73
2023-04-15T20:25:36.596Z,15242.42
2023-04-15T20:30:44.357Z,15243.47
2023-04-15T20:35:47.783Z,15250.06
2023-04-15T20:40:51.344Z,15263.48
2023-04-15T20:46:02.165Z,15224.62
2023-04-15T20:51:10.340Z,15267.00
2023-04-15T20:56:13.770Z,15282.64
2023-04-15T21:01:18.645Z,15301.30
2023-04-15T21:06:22.028Z,15288.71
2023-04-15T21:11:43.129Z,15274.62
2023-04-15T21:16:52.485Z,15288.25
2023-04-15T21:21:55.973Z,15251.22
2023-04-15T21:26:59.383Z,15254.93
2023-04-15T21:32:04.189Z,15255.73
2023-04-15T21:37:09.958Z,15265.23
2023-04-15T21:42:13.485Z,15293.80
2023-04-15T21:47:18.266Z,15216.59
2023-04-15T21:52:24.214Z,15196.68
2023-04-15T21:57:27.597Z,15216.29
2023-04-15T22:02:32.398Z,15205.27
2023-04-15T22:07:36.408Z,15214.69
2023-04-15T22:12:42.268Z,15226.94
2023-04-15T22:17:47.166Z,15250.77
2023-04-15T22:22:54.211Z,15266.50
2023-04-15T22:27:59.939Z,15281.69
2023-04-15T22:33:04.934Z,15296.18
2023-04-15T22:38:08.386Z,15305.30
2023-04-15T22:43:11.774Z,15281.73
2023-04-15T22:48:18.729Z,15298.07
2023-04-15T22:53:22.050Z,15302.73
2023-04-15T22:58:27.776Z,15296.24
2023-04-15T23:03:32.696Z,12060.34
2023-04-15T23:08:58.314Z,9.95
2023-04-15T23:14:03.820Z,14.44
2023-04-15T23:19:08.864Z,10.02
2023-04-15T23:24:12.906Z,10.34
2023-04-15T23:29:16.217Z,10.28
2023-04-15T23:34:20.922Z,10.30
2023-04-15T23:39:24.296Z,10.12
2023-04-15T23:44:27.600Z,11.26
2023-04-15T23:49:34.556Z,10.44
2023-04-15T23:54:40.896Z,10.72
2023-04-15T23:59:44.204Z,11.65
